📊 Raw Sensor Data

Showing records 44151 to 44175 of 85,031 total

ID Distance (ft) Battery V Battery A Int Temp (°F) Int Humid (%) Ext Temp (°F) Solar V RSSI SNR Time Stamp
40893 15.4 3.90 -10 64 51 63 2.80 -68 7 05/17/2025 08:15 PM
40892 15.5 3.99 0 66 52 64 4.50 -68 8 05/17/2025 08:00 PM
40891 15.5 4.01 0 70 51 66 4.50 -67 8 05/17/2025 07:45 PM
40890 15.5 4.02 9 73 50 68 4.50 -69 7 05/17/2025 07:30 PM
40889 15.6 4.03 10 75 50 70 4.50 -68 8 05/17/2025 07:15 PM
40888 15.6 4.05 0 76 51 71 4.50 -68 8 05/17/2025 07:00 PM
40887 15.6 4.02 18 79 49 73 4.50 -69 8 05/17/2025 06:45 PM
40886 15.6 3.97 0 80 48 73 5.10 -68 7 05/17/2025 06:30 PM
40885 15.6 4.04 0 81 47 74 5.10 -68 7 05/17/2025 06:15 PM
40884 15.6 4.05 0 82 47 75 5.10 -68 8 05/17/2025 06:00 PM
40883 15.6 4.13 0 83 46 75 5.10 -69 8 05/17/2025 05:45 PM
40882 15.6 3.97 0 82 47 73 5.10 -70 8 05/17/2025 05:30 PM
40881 15.6 3.97 0 84 45 77 5.10 -68 8 05/17/2025 05:15 PM
40880 15.6 3.97 0 83 45 76 5.10 -68 8 05/17/2025 05:00 PM
40879 15.5 4.13 0 80 48 73 5.10 -68 8 05/17/2025 04:45 PM
40878 15.5 3.97 0 81 48 75 5.10 -68 8 05/17/2025 04:30 PM
40877 15.6 3.97 0 87 44 81 5.10 -67 7 05/17/2025 04:15 PM
40876 15.6 3.97 0 86 44 78 5.10 -69 8 05/17/2025 04:00 PM
40875 15.6 3.98 0 87 43 81 5.10 -68 7 05/17/2025 03:45 PM
40874 15.5 4.06 0 87 43 80 5.10 -69 8 05/17/2025 03:30 PM
40873 15.6 3.97 0 86 43 77 5.10 -69 8 05/17/2025 03:15 PM
40872 15.6 3.99 0 86 43 77 5.10 -69 8 05/17/2025 03:00 PM
40871 15.5 3.97 0 86 42 79 5.10 -69 8 05/17/2025 02:45 PM
40870 15.5 3.97 0 86 42 80 5.10 -68 7 05/17/2025 02:30 PM
40869 15.5 3.97 0 84 42 76 5.10 -67 8 05/17/2025 02:15 PM